Glen Park, New York
Current Conditions -  °F | °C
As of 2:56 AM on Thursday 23 Oct 2014 (Local Time) from KART Reporting Station
Clear Clear  
Wind Chill:   Ceiling: Unl
Heat Index:   Visibility: 10mi
Dew Point:   Wind: 13mph
Humidity: 65%   Direction: 30°NNE
Pressure: 30.08"   Gusts: NA
Location:  43.9663°N, 75.9119°W
Report Text: KART 230656Z AUTO 03011KT 10SM CLR 07/01 A3008 RMK AO2 SLP189 T00720011
Loading
Personal Weather Stations






























Interactive Weather Map
Tropical Storm Tracking
New forecast layout! Learn more

10-Day Weather Forecast

Advertisements
Track Severe Weather on mobile